sensor_id;sensor_type;location;lat;lon;timestamp;P1;durP1;ratioP1;P2;durP2;ratioP2
41687;SDS011;27371;42.686;23.362;2023-10-31T00:01:27;6.53;;;3.40;;
41687;SDS011;27371;42.686;23.362;2023-10-31T00:03:52;10.32;;;3.72;;
41687;SDS011;27371;42.686;23.362;2023-10-31T00:06:18;6.90;;;3.20;;
41687;SDS011;27371;42.686;23.362;2023-10-31T00:08:43;6.78;;;3.72;;
41687;SDS011;27371;42.686;23.362;2023-10-31T00:11:09;9.68;;;3.63;;
41687;SDS011;27371;42.686;23.362;2023-10-31T00:13:34;9.55;;;3.80;;
41687;SDS011;27371;42.686;23.362;2023-10-31T00:16:00;7.85;;;3.67;;
41687;SDS011;27371;42.686;23.362;2023-10-31T00:18:25;7.70;;;3.83;;
41687;SDS011;27371;42.686;23.362;2023-10-31T00:20:51;8.13;;;3.50;;
41687;SDS011;27371;42.686;23.362;2023-10-31T00:23:16;6.78;;;3.67;;
41687;SDS011;27371;42.686;23.362;2023-10-31T00:25:42;9.82;;;3.88;;
41687;SDS011;27371;42.686;23.362;2023-10-31T00:28:07;10.73;;;4.18;;
41687;SDS011;27371;42.686;23.362;2023-10-31T00:30:33;12.70;;;4.47;;
41687;SDS011;27371;42.686;23.362;2023-10-31T00:32:58;12.02;;;4.95;;
41687;SDS011;27371;42.686;23.362;2023-10-31T00:35:24;12.18;;;4.75;;
41687;SDS011;27371;42.686;23.362;2023-10-31T00:37:49;8.23;;;5.15;;
41687;SDS011;27371;42.686;23.362;2023-10-31T00:40:14;10.88;;;4.80;;
41687;SDS011;27371;42.686;23.362;2023-10-31T00:42:42;9.15;;;4.60;;
41687;SDS011;27371;42.686;23.362;2023-10-31T00:45:08;13.98;;;5.50;;
41687;SDS011;27371;42.686;23.362;2023-10-31T00:47:34;14.15;;;5.38;;
41687;SDS011;27371;42.686;23.362;2023-10-31T00:50:00;10.05;;;5.28;;
41687;SDS011;27371;42.686;23.362;2023-10-31T00:52:25;13.85;;;5.55;;
41687;SDS011;27371;42.686;23.362;2023-10-31T00:54:51;15.82;;;5.80;;
41687;SDS011;27371;42.686;23.362;2023-10-31T00:57:16;14.98;;;4.82;;
41687;SDS011;27371;42.686;23.362;2023-10-31T00:59:42;11.73;;;5.30;;
41687;SDS011;27371;42.686;23.362;2023-10-31T01:05:04;12.07;;;5.70;;
41687;SDS011;27371;42.686;23.362;2023-10-31T01:07:39;10.48;;;5.15;;
41687;SDS011;27371;42.686;23.362;2023-10-31T01:10:04;10.07;;;4.70;;
41687;SDS011;27371;42.686;23.362;2023-10-31T01:12:39;10.07;;;4.70;;
41687;SDS011;27371;42.686;23.362;2023-10-31T01:15:05;11.55;;;5.80;;
41687;SDS011;27371;42.686;23.362;2023-10-31T01:17:31;11.57;;;5.50;;
41687;SDS011;27371;42.686;23.362;2023-10-31T01:23:06;13.05;;;4.22;;
41687;SDS011;27371;42.686;23.362;2023-10-31T01:25:41;10.40;;;4.70;;
41687;SDS011;27371;42.686;23.362;2023-10-31T01:31:28;11.13;;;4.32;;
41687;SDS011;27371;42.686;23.362;2023-10-31T01:33:54;10.35;;;4.20;;
41687;SDS011;27371;42.686;23.362;2023-10-31T01:36:23;8.07;;;3.78;;
41687;SDS011;27371;42.686;23.362;2023-10-31T01:38:51;9.57;;;4.45;;
41687;SDS011;27371;42.686;23.362;2023-10-31T01:41:17;8.95;;;3.97;;
41687;SDS011;27371;42.686;23.362;2023-10-31T01:43:42;12.02;;;3.92;;
41687;SDS011;27371;42.686;23.362;2023-10-31T01:46:08;9.80;;;4.45;;
41687;SDS011;27371;42.686;23.362;2023-10-31T01:48:33;5.72;;;3.65;;
41687;SDS011;27371;42.686;23.362;2023-10-31T01:50:59;11.90;;;3.50;;
41687;SDS011;27371;42.686;23.362;2023-10-31T01:53:28;9.70;;;3.83;;
41687;SDS011;27371;42.686;23.362;2023-10-31T01:55:55;12.35;;;4.45;;
41687;SDS011;27371;42.686;23.362;2023-10-31T01:58:23;8.02;;;3.78;;
41687;SDS011;27371;42.686;23.362;2023-10-31T02:00:54;9.27;;;4.03;;
41687;SDS011;27371;42.686;23.362;2023-10-31T02:03:20;8.30;;;3.28;;
41687;SDS011;27371;42.686;23.362;2023-10-31T02:05:45;7.80;;;3.63;;
41687;SDS011;27371;42.686;23.362;2023-10-31T02:08:11;9.27;;;3.70;;
41687;SDS011;27371;42.686;23.362;2023-10-31T02:10:36;5.32;;;3.15;;
41687;SDS011;27371;42.686;23.362;2023-10-31T02:13:11;8.65;;;3.65;;
41687;SDS011;27371;42.686;23.362;2023-10-31T02:15:37;7.32;;;3.50;;
41687;SDS011;27371;42.686;23.362;2023-10-31T02:18:03;6.15;;;3.28;;
41687;SDS011;27371;42.686;23.362;2023-10-31T02:20:29;9.85;;;3.55;;
41687;SDS011;27371;42.686;23.362;2023-10-31T02:22:54;5.47;;;2.95;;
41687;SDS011;27371;42.686;23.362;2023-10-31T02:25:20;12.02;;;3.60;;
41687;SDS011;27371;42.686;23.362;2023-10-31T02:27:45;6.82;;;2.92;;
41687;SDS011;27371;42.686;23.362;2023-10-31T02:30:11;8.18;;;2.88;;
41687;SDS011;27371;42.686;23.362;2023-10-31T02:32:37;5.97;;;3.25;;
41687;SDS011;27371;42.686;23.362;2023-10-31T02:35:03;8.65;;;3.45;;
41687;SDS011;27371;42.686;23.362;2023-10-31T02:37:29;7.32;;;3.00;;
41687;SDS011;27371;42.686;23.362;2023-10-31T02:39:54;9.52;;;4.25;;
41687;SDS011;27371;42.686;23.362;2023-10-31T02:42:20;6.93;;;3.13;;
41687;SDS011;27371;42.686;23.362;2023-10-31T02:44:45;5.95;;;2.95;;
41687;SDS011;27371;42.686;23.362;2023-10-31T02:47:10;6.13;;;3.10;;
41687;SDS011;27371;42.686;23.362;2023-10-31T02:49:36;8.70;;;3.40;;
41687;SDS011;27371;42.686;23.362;2023-10-31T02:52:01;8.70;;;3.85;;
41687;SDS011;27371;42.686;23.362;2023-10-31T02:54:27;6.50;;;3.20;;
41687;SDS011;27371;42.686;23.362;2023-10-31T02:56:52;10.85;;;4.40;;
41687;SDS011;27371;42.686;23.362;2023-10-31T02:59:18;9.82;;;4.40;;
41687;SDS011;27371;42.686;23.362;2023-10-31T03:01:43;9.13;;;4.47;;
41687;SDS011;27371;42.686;23.362;2023-10-31T03:04:09;10.43;;;4.57;;
41687;SDS011;27371;42.686;23.362;2023-10-31T03:06:34;9.32;;;4.85;;
41687;SDS011;27371;42.686;23.362;2023-10-31T03:09:00;10.18;;;4.22;;
41687;SDS011;27371;42.686;23.362;2023-10-31T03:11:25;10.05;;;4.65;;
41687;SDS011;27371;42.686;23.362;2023-10-31T03:13:51;10.48;;;4.47;;
41687;SDS011;27371;42.686;23.362;2023-10-31T03:16:18;9.90;;;4.65;;
41687;SDS011;27371;42.686;23.362;2023-10-31T03:18:45;7.55;;;4.20;;
41687;SDS011;27371;42.686;23.362;2023-10-31T03:21:11;9.43;;;4.57;;
41687;SDS011;27371;42.686;23.362;2023-10-31T03:23:36;10.43;;;5.22;;
41687;SDS011;27371;42.686;23.362;2023-10-31T03:26:02;8.45;;;4.70;;
41687;SDS011;27371;42.686;23.362;2023-10-31T03:28:27;8.30;;;4.45;;
41687;SDS011;27371;42.686;23.362;2023-10-31T03:30:53;11.57;;;4.32;;
41687;SDS011;27371;42.686;23.362;2023-10-31T03:33:18;9.93;;;5.15;;
41687;SDS011;27371;42.686;23.362;2023-10-31T03:35:44;11.40;;;5.32;;
41687;SDS011;27371;42.686;23.362;2023-10-31T03:38:10;9.80;;;4.78;;
41687;SDS011;27371;42.686;23.362;2023-10-31T03:40:36;9.95;;;4.30;;
41687;SDS011;27371;42.686;23.362;2023-10-31T03:43:01;7.90;;;4.10;;
41687;SDS011;27371;42.686;23.362;2023-10-31T03:45:27;11.10;;;4.82;;
41687;SDS011;27371;42.686;23.362;2023-10-31T03:47:52;6.20;;;3.97;;
41687;SDS011;27371;42.686;23.362;2023-10-31T03:50:18;9.18;;;3.58;;
41687;SDS011;27371;42.686;23.362;2023-10-31T03:52:43;6.55;;;3.25;;
41687;SDS011;27371;42.686;23.362;2023-10-31T03:55:08;8.07;;;3.33;;
41687;SDS011;27371;42.686;23.362;2023-10-31T03:57:34;7.25;;;3.90;;
41687;SDS011;27371;42.686;23.362;2023-10-31T03:59:59;10.75;;;3.67;;
41687;SDS011;27371;42.686;23.362;2023-10-31T04:02:25;9.18;;;4.25;;
41687;SDS011;27371;42.686;23.362;2023-10-31T04:04:51;7.50;;;3.70;;
41687;SDS011;27371;42.686;23.362;2023-10-31T04:07:16;8.05;;;3.50;;
41687;SDS011;27371;42.686;23.362;2023-10-31T04:09:42;7.35;;;4.00;;
41687;SDS011;27371;42.686;23.362;2023-10-31T04:12:08;6.20;;;3.50;;
41687;SDS011;27371;42.686;23.362;2023-10-31T04:14:34;6.68;;;4.13;;
41687;SDS011;27371;42.686;23.362;2023-10-31T04:16:59;13.88;;;6.00;;
41687;SDS011;27371;42.686;23.362;2023-10-31T04:19:25;14.50;;;6.90;;
41687;SDS011;27371;42.686;23.362;2023-10-31T04:21:52;10.43;;;5.90;;
41687;SDS011;27371;42.686;23.362;2023-10-31T04:24:18;11.60;;;7.45;;
41687;SDS011;27371;42.686;23.362;2023-10-31T04:26:44;14.07;;;7.75;;
41687;SDS011;27371;42.686;23.362;2023-10-31T04:29:12;13.15;;;7.53;;
41687;SDS011;27371;42.686;23.362;2023-10-31T04:31:37;13.35;;;7.50;;
41687;SDS011;27371;42.686;23.362;2023-10-31T04:34:03;10.32;;;6.30;;
41687;SDS011;27371;42.686;23.362;2023-10-31T04:36:29;12.65;;;5.70;;
41687;SDS011;27371;42.686;23.362;2023-10-31T04:38:55;9.35;;;4.82;;
41687;SDS011;27371;42.686;23.362;2023-10-31T04:41:20;13.80;;;4.85;;
41687;SDS011;27371;42.686;23.362;2023-10-31T04:43:46;11.82;;;4.95;;
41687;SDS011;27371;42.686;23.362;2023-10-31T04:46:11;8.63;;;4.20;;
41687;SDS011;27371;42.686;23.362;2023-10-31T04:48:37;11.02;;;4.50;;
41687;SDS011;27371;42.686;23.362;2023-10-31T04:51:02;11.38;;;5.28;;
41687;SDS011;27371;42.686;23.362;2023-10-31T04:53:28;8.95;;;5.15;;
41687;SDS011;27371;42.686;23.362;2023-10-31T04:55:53;12.25;;;5.43;;
41687;SDS011;27371;42.686;23.362;2023-10-31T04:58:19;15.82;;;5.40;;
41687;SDS011;27371;42.686;23.362;2023-10-31T05:00:44;9.95;;;5.40;;
41687;SDS011;27371;42.686;23.362;2023-10-31T05:03:10;12.57;;;5.93;;
41687;SDS011;27371;42.686;23.362;2023-10-31T05:05:35;14.57;;;5.93;;
41687;SDS011;27371;42.686;23.362;2023-10-31T05:08:01;13.10;;;5.82;;
41687;SDS011;27371;42.686;23.362;2023-10-31T05:10:26;15.15;;;6.60;;
41687;SDS011;27371;42.686;23.362;2023-10-31T05:12:52;9.63;;;5.60;;
41687;SDS011;27371;42.686;23.362;2023-10-31T05:15:17;10.30;;;5.57;;
41687;SDS011;27371;42.686;23.362;2023-10-31T05:17:43;14.00;;;5.88;;
41687;SDS011;27371;42.686;23.362;2023-10-31T05:20:08;12.10;;;5.38;;
41687;SDS011;27371;42.686;23.362;2023-10-31T05:22:35;11.13;;;6.43;;
41687;SDS011;27371;42.686;23.362;2023-10-31T05:25:01;9.10;;;5.60;;
41687;SDS011;27371;42.686;23.362;2023-10-31T05:27:28;15.82;;;5.93;;
41687;SDS011;27371;42.686;23.362;2023-10-31T05:29:53;13.32;;;5.97;;
41687;SDS011;27371;42.686;23.362;2023-10-31T05:32:19;16.02;;;6.18;;
41687;SDS011;27371;42.686;23.362;2023-10-31T05:34:44;9.85;;;6.25;;
41687;SDS011;27371;42.686;23.362;2023-10-31T05:37:10;15.40;;;5.97;;
41687;SDS011;27371;42.686;23.362;2023-10-31T05:39:35;15.27;;;7.03;;
41687;SDS011;27371;42.686;23.362;2023-10-31T05:42:02;14.23;;;8.43;;
41687;SDS011;27371;42.686;23.362;2023-10-31T05:44:27;15.38;;;6.93;;
41687;SDS011;27371;42.686;23.362;2023-10-31T05:46:53;20.33;;;6.05;;
41687;SDS011;27371;42.686;23.362;2023-10-31T05:49:19;14.15;;;7.00;;
41687;SDS011;27371;42.686;23.362;2023-10-31T05:51:44;17.25;;;7.35;;
41687;SDS011;27371;42.686;23.362;2023-10-31T05:54:14;16.33;;;7.82;;
41687;SDS011;27371;42.686;23.362;2023-10-31T05:56:39;17.25;;;8.57;;
41687;SDS011;27371;42.686;23.362;2023-10-31T05:59:05;30.23;;;11.13;;
41687;SDS011;27371;42.686;23.362;2023-10-31T06:01:30;21.65;;;8.60;;
41687;SDS011;27371;42.686;23.362;2023-10-31T06:03:56;18.15;;;8.63;;
41687;SDS011;27371;42.686;23.362;2023-10-31T06:06:21;20.63;;;10.27;;
41687;SDS011;27371;42.686;23.362;2023-10-31T06:08:47;24.55;;;11.60;;
41687;SDS011;27371;42.686;23.362;2023-10-31T06:11:12;26.08;;;12.00;;
41687;SDS011;27371;42.686;23.362;2023-10-31T06:13:38;24.65;;;11.48;;
41687;SDS011;27371;42.686;23.362;2023-10-31T06:16:04;22.40;;;10.82;;
41687;SDS011;27371;42.686;23.362;2023-10-31T06:18:30;26.85;;;10.52;;
41687;SDS011;27371;42.686;23.362;2023-10-31T06:20:56;22.88;;;11.25;;
41687;SDS011;27371;42.686;23.362;2023-10-31T06:23:22;27.58;;;9.50;;
41687;SDS011;27371;42.686;23.362;2023-10-31T06:25:47;19.92;;;9.05;;
41687;SDS011;27371;42.686;23.362;2023-10-31T06:28:13;20.10;;;8.20;;
41687;SDS011;27371;42.686;23.362;2023-10-31T06:30:38;20.83;;;8.70;;
41687;SDS011;27371;42.686;23.362;2023-10-31T06:33:04;23.40;;;9.10;;
41687;SDS011;27371;42.686;23.362;2023-10-31T06:35:29;20.13;;;8.30;;
41687;SDS011;27371;42.686;23.362;2023-10-31T06:37:55;18.50;;;8.77;;
41687;SDS011;27371;42.686;23.362;2023-10-31T06:40:25;21.58;;;8.77;;
41687;SDS011;27371;42.686;23.362;2023-10-31T06:42:51;18.45;;;8.57;;
41687;SDS011;27371;42.686;23.362;2023-10-31T06:45:17;19.88;;;8.32;;
41687;SDS011;27371;42.686;23.362;2023-10-31T06:47:42;18.23;;;7.90;;
41687;SDS011;27371;42.686;23.362;2023-10-31T06:50:08;18.08;;;8.00;;
41687;SDS011;27371;42.686;23.362;2023-10-31T06:52:34;14.02;;;8.05;;
41687;SDS011;27371;42.686;23.362;2023-10-31T06:55:00;13.20;;;6.70;;
41687;SDS011;27371;42.686;23.362;2023-10-31T06:57:25;17.38;;;7.18;;
41687;SDS011;27371;42.686;23.362;2023-10-31T06:59:51;11.93;;;5.75;;
41687;SDS011;27371;42.686;23.362;2023-10-31T07:02:17;17.60;;;6.43;;
41687;SDS011;27371;42.686;23.362;2023-10-31T07:04:42;12.98;;;6.32;;
41687;SDS011;27371;42.686;23.362;2023-10-31T07:07:08;14.75;;;6.80;;
41687;SDS011;27371;42.686;23.362;2023-10-31T07:09:33;14.60;;;6.50;;
41687;SDS011;27371;42.686;23.362;2023-10-31T07:11:59;20.02;;;7.55;;
41687;SDS011;27371;42.686;23.362;2023-10-31T07:14:24;14.23;;;7.03;;
41687;SDS011;27371;42.686;23.362;2023-10-31T07:16:50;16.98;;;7.35;;
41687;SDS011;27371;42.686;23.362;2023-10-31T07:19:15;13.32;;;7.32;;
41687;SDS011;27371;42.686;23.362;2023-10-31T07:21:41;20.65;;;7.50;;
41687;SDS011;27371;42.686;23.362;2023-10-31T07:24:06;14.80;;;6.70;;
41687;SDS011;27371;42.686;23.362;2023-10-31T07:26:34;15.52;;;6.30;;
41687;SDS011;27371;42.686;23.362;2023-10-31T07:29:00;15.05;;;6.75;;
41687;SDS011;27371;42.686;23.362;2023-10-31T07:31:25;16.45;;;6.45;;
41687;SDS011;27371;42.686;23.362;2023-10-31T07:33:51;14.20;;;6.72;;
41687;SDS011;27371;42.686;23.362;2023-10-31T07:36:16;13.10;;;6.60;;
41687;SDS011;27371;42.686;23.362;2023-10-31T07:38:42;11.13;;;6.43;;
41687;SDS011;27371;42.686;23.362;2023-10-31T07:41:07;18.70;;;6.25;;
41687;SDS011;27371;42.686;23.362;2023-10-31T07:43:33;11.30;;;5.75;;
41687;SDS011;27371;42.686;23.362;2023-10-31T07:45:58;13.60;;;5.93;;
41687;SDS011;27371;42.686;23.362;2023-10-31T07:48:24;13.90;;;5.63;;
41687;SDS011;27371;42.686;23.362;2023-10-31T07:50:50;13.82;;;6.05;;
41687;SDS011;27371;42.686;23.362;2023-10-31T07:53:15;12.43;;;5.35;;
41687;SDS011;27371;42.686;23.362;2023-10-31T07:55:41;12.68;;;5.45;;
41687;SDS011;27371;42.686;23.362;2023-10-31T07:58:06;11.02;;;5.68;;
41687;SDS011;27371;42.686;23.362;2023-10-31T08:00:32;9.38;;;4.80;;
41687;SDS011;27371;42.686;23.362;2023-10-31T08:02:59;10.90;;;5.05;;
41687;SDS011;27371;42.686;23.362;2023-10-31T08:05:25;12.02;;;5.68;;
41687;SDS011;27371;42.686;23.362;2023-10-31T08:07:50;16.08;;;5.85;;
41687;SDS011;27371;42.686;23.362;2023-10-31T08:10:16;12.30;;;5.15;;
41687;SDS011;27371;42.686;23.362;2023-10-31T08:12:41;11.73;;;5.93;;
41687;SDS011;27371;42.686;23.362;2023-10-31T08:15:07;10.25;;;5.93;;
41687;SDS011;27371;42.686;23.362;2023-10-31T08:17:33;17.20;;;5.40;;
41687;SDS011;27371;42.686;23.362;2023-10-31T08:19:59;16.00;;;7.97;;
41687;SDS011;27371;42.686;23.362;2023-10-31T08:22:24;10.98;;;6.38;;
41687;SDS011;27371;42.686;23.362;2023-10-31T08:24:50;10.88;;;4.45;;
41687;SDS011;27371;42.686;23.362;2023-10-31T08:27:15;7.80;;;3.90;;
41687;SDS011;27371;42.686;23.362;2023-10-31T08:29:41;10.55;;;3.83;;
41687;SDS011;27371;42.686;23.362;2023-10-31T08:32:07;9.10;;;3.53;;
41687;SDS011;27371;42.686;23.362;2023-10-31T08:34:32;7.28;;;3.50;;
41687;SDS011;27371;42.686;23.362;2023-10-31T08:36:58;11.27;;;4.00;;
41687;SDS011;27371;42.686;23.362;2023-10-31T08:39:25;10.25;;;4.18;;
41687;SDS011;27371;42.686;23.362;2023-10-31T08:41:54;10.32;;;4.45;;
41687;SDS011;27371;42.686;23.362;2023-10-31T08:44:20;12.48;;;4.40;;
41687;SDS011;27371;42.686;23.362;2023-10-31T08:46:46;8.85;;;4.38;;
41687;SDS011;27371;42.686;23.362;2023-10-31T08:49:13;10.95;;;4.30;;
41687;SDS011;27371;42.686;23.362;2023-10-31T08:51:39;14.57;;;5.05;;
41687;SDS011;27371;42.686;23.362;2023-10-31T08:54:05;7.30;;;4.47;;
41687;SDS011;27371;42.686;23.362;2023-10-31T08:56:31;10.80;;;5.70;;
41687;SDS011;27371;42.686;23.362;2023-10-31T08:58:56;14.07;;;6.10;;
41687;SDS011;27371;42.686;23.362;2023-10-31T09:01:22;8.45;;;5.22;;
41687;SDS011;27371;42.686;23.362;2023-10-31T09:03:47;11.05;;;5.38;;
41687;SDS011;27371;42.686;23.362;2023-10-31T09:06:13;12.77;;;6.15;;
41687;SDS011;27371;42.686;23.362;2023-10-31T09:08:39;14.43;;;6.90;;
41687;SDS011;27371;42.686;23.362;2023-10-31T09:11:04;9.48;;;5.85;;
41687;SDS011;27371;42.686;23.362;2023-10-31T09:13:30;20.15;;;7.43;;
41687;SDS011;27371;42.686;23.362;2023-10-31T09:15:59;18.50;;;6.15;;
41687;SDS011;27371;42.686;23.362;2023-10-31T09:18:25;14.55;;;6.28;;
41687;SDS011;27371;42.686;23.362;2023-10-31T09:20:50;15.65;;;7.47;;
41687;SDS011;27371;42.686;23.362;2023-10-31T09:23:16;16.73;;;7.13;;
41687;SDS011;27371;42.686;23.362;2023-10-31T09:25:45;17.27;;;7.80;;
41687;SDS011;27371;42.686;23.362;2023-10-31T09:28:10;17.75;;;7.40;;
41687;SDS011;27371;42.686;23.362;2023-10-31T09:30:36;16.02;;;7.85;;
41687;SDS011;27371;42.686;23.362;2023-10-31T09:33:02;26.00;;;7.95;;
41687;SDS011;27371;42.686;23.362;2023-10-31T09:35:27;19.00;;;8.45;;
41687;SDS011;27371;42.686;23.362;2023-10-31T09:37:53;20.90;;;7.95;;
41687;SDS011;27371;42.686;23.362;2023-10-31T09:40:20;14.13;;;7.15;;
41687;SDS011;27371;42.686;23.362;2023-10-31T09:42:46;13.65;;;7.10;;
41687;SDS011;27371;42.686;23.362;2023-10-31T09:45:12;19.92;;;8.07;;
41687;SDS011;27371;42.686;23.362;2023-10-31T09:47:38;13.90;;;7.03;;
41687;SDS011;27371;42.686;23.362;2023-10-31T09:50:05;18.58;;;6.90;;
41687;SDS011;27371;42.686;23.362;2023-10-31T09:52:34;18.55;;;6.78;;
41687;SDS011;27371;42.686;23.362;2023-10-31T09:55:01;19.30;;;7.20;;
41687;SDS011;27371;42.686;23.362;2023-10-31T09:57:28;11.98;;;6.65;;
41687;SDS011;27371;42.686;23.362;2023-10-31T09:59:54;13.85;;;5.80;;
41687;SDS011;27371;42.686;23.362;2023-10-31T10:02:19;20.35;;;4.90;;
41687;SDS011;27371;42.686;23.362;2023-10-31T10:04:48;10.00;;;4.03;;
41687;SDS011;27371;42.686;23.362;2023-10-31T10:07:17;16.73;;;4.88;;
41687;SDS011;27371;42.686;23.362;2023-10-31T10:09:43;12.20;;;4.40;;
41687;SDS011;27371;42.686;23.362;2023-10-31T10:12:11;9.65;;;4.22;;
41687;SDS011;27371;42.686;23.362;2023-10-31T10:14:38;18.85;;;5.57;;
41687;SDS011;27371;42.686;23.362;2023-10-31T10:17:13;12.32;;;4.70;;
41687;SDS011;27371;42.686;23.362;2023-10-31T10:19:43;15.43;;;5.85;;
41687;SDS011;27371;42.686;23.362;2023-10-31T10:22:08;12.57;;;3.95;;
41687;SDS011;27371;42.686;23.362;2023-10-31T10:24:35;10.43;;;3.70;;
41687;SDS011;27371;42.686;23.362;2023-10-31T10:27:04;12.13;;;4.00;;
41687;SDS011;27371;42.686;23.362;2023-10-31T10:29:29;9.32;;;3.80;;
41687;SDS011;27371;42.686;23.362;2023-10-31T10:31:55;12.32;;;5.30;;
41687;SDS011;27371;42.686;23.362;2023-10-31T10:34:20;13.10;;;4.68;;
41687;SDS011;27371;42.686;23.362;2023-10-31T10:36:46;11.50;;;3.65;;
41687;SDS011;27371;42.686;23.362;2023-10-31T10:39:14;9.68;;;3.08;;
41687;SDS011;27371;42.686;23.362;2023-10-31T10:41:45;8.27;;;3.10;;
41687;SDS011;27371;42.686;23.362;2023-10-31T10:44:15;9.25;;;2.50;;
41687;SDS011;27371;42.686;23.362;2023-10-31T10:46:42;9.75;;;3.25;;
41687;SDS011;27371;42.686;23.362;2023-10-31T10:49:12;7.72;;;3.22;;
41687;SDS011;27371;42.686;23.362;2023-10-31T10:54:17;7.65;;;2.60;;
41687;SDS011;27371;42.686;23.362;2023-10-31T10:56:53;9.55;;;2.70;;
41687;SDS011;27371;42.686;23.362;2023-10-31T10:59:23;6.75;;;2.67;;
41687;SDS011;27371;42.686;23.362;2023-10-31T11:02:14;7.32;;;2.75;;
41687;SDS011;27371;42.686;23.362;2023-10-31T11:04:40;4.93;;;2.22;;
41687;SDS011;27371;42.686;23.362;2023-10-31T11:07:07;13.27;;;3.47;;
41687;SDS011;27371;42.686;23.362;2023-10-31T11:09:34;7.80;;;2.65;;
41687;SDS011;27371;42.686;23.362;2023-10-31T11:12:00;18.63;;;3.10;;
41687;SDS011;27371;42.686;23.362;2023-10-31T11:14:27;11.52;;;3.08;;
41687;SDS011;27371;42.686;23.362;2023-10-31T11:16:56;7.30;;;2.63;;
41687;SDS011;27371;42.686;23.362;2023-10-31T11:19:25;7.05;;;2.40;;
41687;SDS011;27371;42.686;23.362;2023-10-31T11:21:53;6.40;;;1.95;;
41687;SDS011;27371;42.686;23.362;2023-10-31T11:24:20;13.50;;;2.47;;
41687;SDS011;27371;42.686;23.362;2023-10-31T11:26:51;7.38;;;1.95;;
41687;SDS011;27371;42.686;23.362;2023-10-31T11:29:17;8.48;;;2.50;;
41687;SDS011;27371;42.686;23.362;2023-10-31T11:31:43;10.30;;;2.25;;
41687;SDS011;27371;42.686;23.362;2023-10-31T11:34:08;4.30;;;2.10;;
41687;SDS011;27371;42.686;23.362;2023-10-31T11:36:37;6.95;;;2.55;;
41687;SDS011;27371;42.686;23.362;2023-10-31T11:39:10;7.30;;;2.10;;
41687;SDS011;27371;42.686;23.362;2023-10-31T11:41:39;6.65;;;2.00;;
41687;SDS011;27371;42.686;23.362;2023-10-31T11:44:05;6.50;;;2.45;;
41687;SDS011;27371;42.686;23.362;2023-10-31T11:46:30;5.80;;;2.33;;
41687;SDS011;27371;42.686;23.362;2023-10-31T11:48:56;8.75;;;1.90;;
41687;SDS011;27371;42.686;23.362;2023-10-31T11:51:23;5.93;;;2.05;;
41687;SDS011;27371;42.686;23.362;2023-10-31T11:53:48;9.60;;;2.50;;
41687;SDS011;27371;42.686;23.362;2023-10-31T11:56:17;10.40;;;2.95;;
41687;SDS011;27371;42.686;23.362;2023-10-31T11:58:44;7.85;;;2.20;;
41687;SDS011;27371;42.686;23.362;2023-10-31T12:01:09;10.90;;;2.80;;
41687;SDS011;27371;42.686;23.362;2023-10-31T12:03:39;8.07;;;2.83;;
41687;SDS011;27371;42.686;23.362;2023-10-31T12:06:06;11.55;;;2.92;;
41687;SDS011;27371;42.686;23.362;2023-10-31T12:08:36;6.13;;;2.65;;
41687;SDS011;27371;42.686;23.362;2023-10-31T12:11:06;11.35;;;3.30;;
41687;SDS011;27371;42.686;23.362;2023-10-31T12:13:38;10.93;;;2.60;;
41687;SDS011;27371;42.686;23.362;2023-10-31T12:16:08;8.18;;;2.13;;
41687;SDS011;27371;42.686;23.362;2023-10-31T12:18:35;6.22;;;2.95;;
41687;SDS011;27371;42.686;23.362;2023-10-31T12:21:01;10.57;;;3.28;;
41687;SDS011;27371;42.686;23.362;2023-10-31T12:23:27;9.23;;;3.25;;
41687;SDS011;27371;42.686;23.362;2023-10-31T12:25:53;9.63;;;2.85;;
41687;SDS011;27371;42.686;23.362;2023-10-31T12:28:20;15.45;;;5.13;;
41687;SDS011;27371;42.686;23.362;2023-10-31T12:30:50;11.23;;;4.00;;
41687;SDS011;27371;42.686;23.362;2023-10-31T12:33:19;10.10;;;3.03;;
41687;SDS011;27371;42.686;23.362;2023-10-31T12:35:50;7.28;;;3.28;;
41687;SDS011;27371;42.686;23.362;2023-10-31T12:38:18;9.65;;;3.40;;
41687;SDS011;27371;42.686;23.362;2023-10-31T12:40:44;8.18;;;2.92;;
41687;SDS011;27371;42.686;23.362;2023-10-31T12:43:11;12.02;;;4.13;;
41687;SDS011;27371;42.686;23.362;2023-10-31T12:45:37;10.35;;;3.78;;
41687;SDS011;27371;42.686;23.362;2023-10-31T12:50:29;8.88;;;3.10;;
41687;SDS011;27371;42.686;23.362;2023-10-31T12:52:56;12.45;;;3.17;;
41687;SDS011;27371;42.686;23.362;2023-10-31T12:55:26;17.83;;;3.63;;
41687;SDS011;27371;42.686;23.362;2023-10-31T12:57:53;5.43;;;2.45;;
41687;SDS011;27371;42.686;23.362;2023-10-31T13:00:20;9.15;;;2.88;;
41687;SDS011;27371;42.686;23.362;2023-10-31T13:02:58;10.23;;;3.28;;
41687;SDS011;27371;42.686;23.362;2023-10-31T13:05:29;11.35;;;2.90;;
41687;SDS011;27371;42.686;23.362;2023-10-31T13:07:55;13.38;;;3.80;;
41687;SDS011;27371;42.686;23.362;2023-10-31T13:10:25;11.90;;;3.10;;
41687;SDS011;27371;42.686;23.362;2023-10-31T13:12:52;8.95;;;2.70;;
41687;SDS011;27371;42.686;23.362;2023-10-31T13:15:21;8.13;;;3.05;;
41687;SDS011;27371;42.686;23.362;2023-10-31T13:17:51;9.95;;;3.13;;
41687;SDS011;27371;42.686;23.362;2023-10-31T13:20:20;7.60;;;2.50;;
41687;SDS011;27371;42.686;23.362;2023-10-31T13:22:46;8.23;;;3.15;;
41687;SDS011;27371;42.686;23.362;2023-10-31T13:25:12;8.60;;;2.90;;
41687;SDS011;27371;42.686;23.362;2023-10-31T13:27:40;10.18;;;2.92;;
41687;SDS011;27371;42.686;23.362;2023-10-31T13:30:08;6.53;;;2.70;;
41687;SDS011;27371;42.686;23.362;2023-10-31T13:32:39;8.80;;;3.05;;
41687;SDS011;27371;42.686;23.362;2023-10-31T13:35:05;6.68;;;2.53;;
41687;SDS011;27371;42.686;23.362;2023-10-31T13:37:31;12.75;;;2.70;;
41687;SDS011;27371;42.686;23.362;2023-10-31T13:39:57;9.40;;;3.13;;
41687;SDS011;27371;42.686;23.362;2023-10-31T13:42:22;13.82;;;2.90;;
41687;SDS011;27371;42.686;23.362;2023-10-31T13:44:48;9.80;;;3.22;;
41687;SDS011;27371;42.686;23.362;2023-10-31T13:47:13;11.63;;;3.40;;
41687;SDS011;27371;42.686;23.362;2023-10-31T13:49:39;10.95;;;3.45;;
41687;SDS011;27371;42.686;23.362;2023-10-31T13:52:05;12.38;;;3.10;;
41687;SDS011;27371;42.686;23.362;2023-10-31T13:54:31;11.50;;;3.13;;
41687;SDS011;27371;42.686;23.362;2023-10-31T13:56:57;10.80;;;2.55;;
41687;SDS011;27371;42.686;23.362;2023-10-31T13:59:23;7.68;;;2.05;;
41687;SDS011;27371;42.686;23.362;2023-10-31T14:01:48;9.98;;;2.25;;
41687;SDS011;27371;42.686;23.362;2023-10-31T14:04:14;8.45;;;3.00;;
41687;SDS011;27371;42.686;23.362;2023-10-31T14:06:40;6.10;;;2.55;;
41687;SDS011;27371;42.686;23.362;2023-10-31T14:09:07;11.85;;;3.88;;
41687;SDS011;27371;42.686;23.362;2023-10-31T14:11:33;8.82;;;3.50;;
41687;SDS011;27371;42.686;23.362;2023-10-31T14:14:02;9.30;;;3.20;;
41687;SDS011;27371;42.686;23.362;2023-10-31T14:16:37;8.98;;;4.25;;
41687;SDS011;27371;42.686;23.362;2023-10-31T14:19:06;8.32;;;3.78;;
41687;SDS011;27371;42.686;23.362;2023-10-31T14:21:33;12.20;;;3.90;;
41687;SDS011;27371;42.686;23.362;2023-10-31T14:23:59;8.93;;;3.13;;
41687;SDS011;27371;42.686;23.362;2023-10-31T14:26:26;13.13;;;3.55;;
41687;SDS011;27371;42.686;23.362;2023-10-31T14:28:52;8.80;;;3.50;;
41687;SDS011;27371;42.686;23.362;2023-10-31T14:31:17;9.80;;;3.40;;
41687;SDS011;27371;42.686;23.362;2023-10-31T14:33:44;10.70;;;3.30;;
41687;SDS011;27371;42.686;23.362;2023-10-31T14:36:09;11.52;;;3.63;;